Time;durP1;ratioP1;P1;durP2;ratioP2;P2;SDS_P1;SDS_P2;PMS_P1;PMS_P2;Temp;Humidity;BMP_temperature;BMP_pressure;BME280_temperature;BME280_humidity;BME280_pressure;Samples;Min_cycle;Max_cycle;Signal;HPM_P1;HPM_P2
2021/01/17 00:01:10;;;;;;;15.00;6.72;;;-1.50;72.00;;;;;;4938687;28;20052;-84
2021/01/17 00:03:35;;;;;;;20.95;7.30;;;-1.60;72.10;;;;;;4955043;28;20538;-84
2021/01/17 00:06:02;;;;;;;16.95;6.35;;;-1.60;72.30;;;;;;4939292;28;20031;-84
2021/01/17 00:08:27;;;;;;;15.50;6.18;;;-1.50;72.30;;;;;;4939432;28;20082;-85
2021/01/17 00:10:53;;;;;;;15.70;5.88;;;-1.50;72.30;;;;;;4938970;28;20035;-84
2021/01/17 00:13:19;;;;;;;18.58;6.20;;;-1.50;72.30;;;;;;4955104;28;20031;-83
2021/01/17 00:15:50;;;;;;;15.85;6.70;;;-1.50;72.30;;;;;;4954566;29;20218;-83
2021/01/17 00:18:16;;;;;;;14.57;6.43;;;-1.60;72.20;;;;;;4954469;28;20031;-83
2021/01/17 00:21:37;;;;;;;16.77;6.90;;;-1.50;72.30;;;;;;4955011;28;20082;-87
2021/01/17 00:24:46;;;;;;;19.13;7.90;;;-1.60;72.20;;;;;;4947814;28;20035;-86
2021/01/17 00:27:22;;;;;;;13.88;5.93;;;-1.50;72.30;;;;;;4925353;29;20031;-86
2021/01/17 00:30:07;;;;;;;14.57;6.38;;;-1.50;72.30;;;;;;4938810;28;20039;-87
2021/01/17 00:33:17;;;;;;;19.60;7.22;;;-1.50;72.20;;;;;;4954646;28;20023;-86
2021/01/17 00:36:25;;;;;;;;;;;;;;;;;;;;;
2021/01/17 00:42:11;;;;;;;18.00;6.65;;;-1.70;72.00;;;;;;4953748;28;20031;-87
2021/01/17 00:45:00;;;;;;;15.05;6.72;;;-1.70;71.80;;;;;;4955086;28;20026;-87
2021/01/17 00:47:38;;;;;;;;;;;;;;;;;;;;;
2021/01/17 01:20:25;;;;;;;18.35;7.50;;;-2.10;71.90;;;;;;4797585;29;20030;-86
2021/01/17 01:23:53;;;;;;;;;;;;;;;;;;;;;
2021/01/17 01:27:31;;;;;;;;;;;;;;;;;;;;;
2021/01/17 01:34:44;;;;;;;;;;;;;;;;;;;;;
2021/01/17 01:38:21;;;;;;;18.50;7.57;;;-2.20;72.00;;;;;;4837177;29;20046;-86
2021/01/17 01:40:54;;;;;;;22.00;8.35;;;-2.20;72.20;;;;;;4816598;29;20117;-83
2021/01/17 01:43:21;;;;;;;21.20;8.52;;;-2.20;72.60;;;;;;4878318;29;20029;-83
2021/01/17 01:45:47;;;;;;;24.40;9.43;;;-2.20;72.10;;;;;;4875561;29;20384;-83
2021/01/17 01:48:14;;;;;;;22.02;9.55;;;-2.20;72.10;;;;;;4936928;29;20019;-83
2021/01/17 01:50:45;;;;;;;27.58;10.75;;;-2.20;72.10;;;;;;4934312;29;20076;-83
2021/01/17 01:53:14;;;;;;;27.02;10.70;;;-2.30;72.10;;;;;;4918669;29;20035;-83
2021/01/17 01:55:42;;;;;;;24.98;9.43;;;-2.20;72.00;;;;;;4933877;29;20365;-83
2021/01/17 01:58:11;;;;;;;20.35;8.95;;;-2.20;72.00;;;;;;4917841;29;20428;-84
2021/01/17 02:00:39;;;;;;;18.45;8.13;;;-2.30;71.90;;;;;;4934233;29;20016;-83
2021/01/17 02:03:05;;;;;;;25.17;9.50;;;-2.20;72.20;;;;;;4954914;28;20077;-82
2021/01/17 02:05:30;;;;;;;25.27;9.05;;;-2.30;72.10;;;;;;4973268;28;20055;-82
2021/01/17 02:08:29;;;;;;;20.20;9.27;;;-2.20;72.20;;;;;;4956133;28;20023;-83
2021/01/17 02:15:09;;;;;;;;;;;;;;;;;;;;;
2021/01/17 02:21:37;;;;;;;27.17;10.20;;;-2.10;72.70;;;;;;4945118;28;20043;-87
2021/01/17 02:27:40;;;;;;;24.10;8.85;;;-1.80;72.70;;;;;;4925409;28;20023;-85
2021/01/17 02:30:13;;;;;;;24.02;9.80;;;-1.80;72.80;;;;;;4940185;28;20050;-85
2021/01/17 02:32:51;;;;;;;24.42;8.95;;;-1.80;72.80;;;;;;4956280;28;20380;-85
2021/01/17 02:35:33;;;;;;;23.83;9.80;;;-1.80;72.70;;;;;;4953803;28;20046;-86
2021/01/17 02:38:29;;;;;;;22.90;8.95;;;-1.70;72.70;;;;;;4960364;28;20023;-86
2021/01/17 02:41:32;;;;;;;20.38;8.60;;;-1.70;72.90;;;;;;4953491;28;20375;-86
2021/01/17 02:44:12;;;;;;;21.40;7.90;;;-1.60;72.80;;;;;;4955862;28;20023;-87
2021/01/17 02:46:50;;;;;;;;;;;;;;;;;;;;;
2021/01/17 02:49:30;;;;;;;24.35;9.32;;;-1.50;72.80;;;;;;4972786;28;20031;-85
2021/01/17 02:52:01;;;;;;;20.75;8.32;;;-1.50;72.80;;;;;;4952006;28;20054;-85
2021/01/17 02:54:44;;;;;;;21.13;9.68;;;-1.60;72.80;;;;;;4959574;28;20118;-87
2021/01/17 02:57:14;;;;;;;20.77;9.13;;;-1.40;72.90;;;;;;4956684;28;20102;-85
2021/01/17 03:00:07;;;;;;;19.83;7.88;;;-1.50;72.80;;;;;;4959473;28;20027;-86
2021/01/17 03:02:35;;;;;;;24.55;9.40;;;-1.50;72.80;;;;;;4955057;28;20091;-87
2021/01/17 03:05:27;;;;;;;24.73;11.13;;;-1.50;72.70;;;;;;4951979;28;20050;-85
2021/01/17 03:07:54;;;;;;;26.30;10.73;;;-1.40;72.70;;;;;;4954925;28;20027;-85
2021/01/17 03:10:37;;;;;;;21.88;8.90;;;-1.40;72.70;;;;;;4956579;28;20023;-85
2021/01/17 03:13:12;;;;;;;28.20;8.50;;;-1.40;72.70;;;;;;4955919;28;20028;-86
2021/01/17 03:15:40;;;;;;;21.73;9.65;;;-1.30;73.20;;;;;;4956151;28;20035;-82
2021/01/17 03:18:18;;;;;;;24.58;9.60;;;-1.40;72.90;;;;;;4955966;28;20030;-83
2021/01/17 03:20:44;;;;;;;22.58;9.30;;;-1.40;73.00;;;;;;4956036;28;20016;-83
2021/01/17 03:23:09;;;;;;;22.38;9.45;;;-1.40;73.00;;;;;;4956204;28;20543;-83
2021/01/17 03:25:53;;;;;;;25.67;10.05;;;-1.20;73.20;;;;;;4956195;28;20472;-83
2021/01/17 03:28:29;;;;;;;24.95;9.27;;;-1.10;73.10;;;;;;4935606;28;20116;-83
2021/01/17 03:30:57;;;;;;;25.58;9.95;;;-1.20;72.90;;;;;;4955727;28;20031;-83
2021/01/17 03:33:23;;;;;;;24.40;9.38;;;-1.20;72.90;;;;;;4955951;28;20034;-84
2021/01/17 03:35:49;;;;;;;21.80;8.10;;;-1.20;72.70;;;;;;4955008;29;20043;-84
2021/01/17 03:38:16;;;;;;;20.02;7.90;;;-1.20;72.80;;;;;;4949013;28;20376;-84
2021/01/17 03:41:22;;;;;;;26.05;9.70;;;-1.10;72.90;;;;;;4955986;28;20118;-84
2021/01/17 03:44:03;;;;;;;26.10;10.75;;;-1.10;72.80;;;;;;4928918;28;20028;-85
2021/01/17 03:46:43;;;;;;;26.17;11.30;;;-1.10;72.80;;;;;;4951436;28;20163;-83
2021/01/17 03:49:29;;;;;;;32.38;11.60;;;-1.20;72.90;;;;;;4955473;28;20109;-83
2021/01/17 03:51:55;;;;;;;27.08;10.35;;;-1.10;72.80;;;;;;4932916;29;20045;-83
2021/01/17 03:54:21;;;;;;;27.63;10.68;;;-1.10;73.00;;;;;;4961784;28;20098;-82
2021/01/17 03:56:47;;;;;;;19.67;8.82;;;-1.10;72.70;;;;;;4955238;28;20032;-84
2021/01/17 03:59:15;;;;;;;23.23;9.75;;;-1.20;72.80;;;;;;4955263;28;20460;-84
2021/01/17 04:01:46;;;;;;;22.30;8.32;;;-1.10;72.50;;;;;;4955459;28;20027;-84
2021/01/17 04:04:22;;;;;;;19.70;8.88;;;-1.10;72.70;;;;;;4954143;28;20040;-86
2021/01/17 04:06:51;;;;;;;24.50;10.38;;;-1.10;72.80;;;;;;4956072;28;20023;-85
2021/01/17 04:09:16;;;;;;;26.33;9.68;;;-1.20;72.60;;;;;;4954978;28;20180;-83
2021/01/17 04:11:42;;;;;;;19.23;8.57;;;-1.10;72.90;;;;;;4954955;28;20114;-85
2021/01/17 04:14:08;;;;;;;26.25;10.95;;;-1.10;73.00;;;;;;4958093;28;20102;-85
2021/01/17 04:17:01;;;;;;;;;;;;;;;;;;;;;
2021/01/17 04:19:48;;;;;;;;;;;;;;;;;;;;;
2021/01/17 04:22:48;;;;;;;;;;;;;;;;;;;;;
2021/01/17 04:25:20;;;;;;;20.48;8.43;;;-1.00;72.70;;;;;;4949224;28;20027;-86
2021/01/17 04:28:06;;;;;;;22.85;9.27;;;-1.10;72.70;;;;;;4957789;28;20019;-86
2021/01/17 04:30:45;;;;;;;;;;;;;;;;;;;;;
2021/01/17 04:33:22;;;;;;;23.15;9.18;;;-1.10;72.90;;;;;;4957525;28;20384;-85
2021/01/17 04:36:17;;;;;;;19.27;8.55;;;-1.00;73.20;;;;;;4938983;28;20066;-86
2021/01/17 04:38:42;;;;;;;25.58;10.27;;;-1.00;72.70;;;;;;4953682;28;20387;-82
2021/01/17 04:41:13;;;;;;;26.00;10.43;;;-1.00;72.90;;;;;;4954504;28;20140;-82
2021/01/17 04:43:40;;;;;;;22.02;9.00;;;-1.00;73.00;;;;;;4959920;28;20026;-83
2021/01/17 04:46:17;;;;;;;25.50;9.85;;;-1.00;72.80;;;;;;4954432;28;20031;-84
2021/01/17 04:48:46;;;;;;;26.30;8.88;;;-1.00;72.80;;;;;;4954293;29;20147;-84
2021/01/17 04:51:16;;;;;;;18.02;7.50;;;-1.00;72.70;;;;;;4954396;28;20023;-84
2021/01/17 04:53:49;;;;;;;20.27;8.40;;;-1.00;73.00;;;;;;4938586;28;20027;-84
2021/01/17 04:56:53;;;;;;;22.65;9.55;;;-1.00;73.00;;;;;;4954181;28;20475;-84
2021/01/17 04:59:27;;;;;;;23.90;9.98;;;-1.00;72.90;;;;;;4932139;28;20035;-85
2021/01/17 05:02:38;;;;;;;21.92;8.77;;;-1.00;72.40;;;;;;4954018;28;20031;-86
2021/01/17 05:05:14;;;;;;;23.38;9.23;;;-1.10;72.60;;;;;;4950884;28;20035;-85
2021/01/17 05:07:48;;;;;;;21.38;8.68;;;-1.10;72.60;;;;;;4957273;28;20023;-84
2021/01/17 05:10:31;;;;;;;20.60;8.32;;;-1.10;73.00;;;;;;4951577;28;20089;-84
2021/01/17 05:13:16;;;;;;;22.05;8.25;;;-1.10;72.90;;;;;;4973818;28;20042;-85
2021/01/17 05:15:45;;;;;;;20.48;8.38;;;-1.10;72.70;;;;;;4955695;28;20125;-83
2021/01/17 05:18:11;;;;;;;18.52;7.25;;;-1.10;72.90;;;;;;4941166;28;20038;-84
2021/01/17 05:20:39;;;;;;;26.77;12.00;;;-1.10;72.90;;;;;;4951324;28;20027;-85
2021/01/17 05:23:10;;;;;;;20.63;8.48;;;-1.10;72.80;;;;;;4944197;28;20034;-84
2021/01/17 05:25:36;;;;;;;19.27;7.03;;;-1.10;72.60;;;;;;4962443;28;20109;-84
2021/01/17 05:28:05;;;;;;;22.27;8.57;;;-1.10;72.60;;;;;;4957188;28;20110;-83
2021/01/17 05:30:39;;;;;;;20.27;9.25;;;-1.10;72.80;;;;;;4949530;28;20030;-83
2021/01/17 05:33:06;;;;;;;18.47;7.87;;;-1.10;72.80;;;;;;4956579;28;20054;-82
2021/01/17 05:35:32;;;;;;;23.90;9.48;;;-1.20;72.70;;;;;;4956275;28;20278;-82
2021/01/17 05:37:58;;;;;;;21.80;9.18;;;-1.10;73.10;;;;;;4937133;28;20034;-83
2021/01/17 05:40:24;;;;;;;23.67;9.25;;;-1.10;72.80;;;;;;4955755;28;20054;-82
2021/01/17 05:42:50;;;;;;;22.23;7.72;;;-1.10;73.00;;;;;;4956101;28;20027;-82
2021/01/17 05:45:18;;;;;;;22.75;8.77;;;-1.10;73.10;;;;;;4956411;28;20027;-82
2021/01/17 05:48:01;;;;;;;23.38;9.77;;;-1.00;73.80;;;;;;4956415;28;20074;-82
2021/01/17 05:50:29;;;;;;;20.90;8.25;;;-1.00;73.10;;;;;;4949588;28;20019;-82
2021/01/17 05:52:56;;;;;;;24.88;9.30;;;-1.00;73.10;;;;;;4956225;28;20483;-82
2021/01/17 05:55:43;;;;;;;20.38;8.77;;;-1.00;72.70;;;;;;4956163;28;20031;-84
2021/01/17 05:58:32;;;;;;;24.52;10.07;;;-1.00;73.00;;;;;;4950754;28;20030;-86
2021/01/17 06:01:18;;;;;;;23.13;9.65;;;-1.00;73.00;;;;;;4937481;28;20023;-86
2021/01/17 06:03:50;;;;;;;;;;;-1.00;73.00;;;;;;4953039;28;20046;-88
2021/01/17 06:06:28;;;;;;;20.92;7.93;;;-1.00;73.20;;;;;;4956420;28;19910;-85
2021/01/17 06:08:55;;;;;;;18.88;8.00;;;-1.00;73.00;;;;;;4956266;28;20442;-85
2021/01/17 06:11:22;;;;;;;18.17;8.38;;;-1.00;72.90;;;;;;4940508;28;20037;-87
2021/01/17 06:13:59;;;;;;;28.67;10.38;;;-1.00;72.70;;;;;;4940622;28;20033;-85
2021/01/17 06:16:37;;;;;;;20.98;8.88;;;-1.00;72.90;;;;;;4955899;28;20031;-85
2021/01/17 06:19:07;;;;;;;29.02;11.05;;;-1.00;73.10;;;;;;4953448;28;20027;-85
2021/01/17 06:21:34;;;;;;;28.33;12.07;;;-1.00;72.70;;;;;;4956493;28;20122;-87
2021/01/17 06:24:02;;;;;;;28.23;10.35;;;-1.10;72.60;;;;;;4956827;28;20058;-85
2021/01/17 06:26:54;;;;;;;21.83;8.50;;;-1.10;72.90;;;;;;4955965;28;20053;-85
2021/01/17 06:40:48;;;;;;;;;;;;;;;;;;;;;
2021/01/17 06:44:29;;;;;;;;;;;;;;;;;;;;;
2021/01/17 06:47:42;;;;;;;;;;;;;;;;;;;;;
2021/01/17 06:50:42;;;;;;;23.27;9.20;;;-1.10;73.00;;;;;;4973233;28;20019;-89
2021/01/17 06:56:23;;;;;;;19.23;8.15;;;-1.00;73.60;;;;;;4955888;28;20470;-89
2021/01/17 06:58:51;;;;;;;26.65;10.57;;;-1.00;73.50;;;;;;4955681;28;20030;-87
2021/01/17 07:01:37;;;;;;;23.70;9.38;;;-1.00;73.30;;;;;;4955948;28;20023;-85
2021/01/17 07:04:15;;;;;;;20.25;8.70;;;-0.90;73.30;;;;;;4950285;28;20489;-85
2021/01/17 07:07:04;;;;;;;21.67;9.88;;;-0.90;73.50;;;;;;4955169;28;20066;-85
2021/01/17 07:09:48;;;;;;;32.42;11.32;;;-0.80;73.40;;;;;;4950950;28;20016;-86
2021/01/17 07:12:51;;;;;;;24.95;9.57;;;-0.80;73.40;;;;;;4950711;28;20023;-86
2021/01/17 07:15:27;;;;;;;22.83;8.82;;;-0.80;73.20;;;;;;4949957;29;20027;-86
2021/01/17 07:18:11;;;;;;;31.45;11.95;;;-0.80;73.30;;;;;;4951227;28;20031;-86
2021/01/17 07:20:47;;;;;;;28.20;11.00;;;-0.80;73.40;;;;;;4949238;28;20020;-86
2021/01/17 07:23:20;;;;;;;23.02;10.73;;;-0.80;73.40;;;;;;4955574;28;20030;-86
2021/01/17 07:30:21;;;;;;;24.23;9.75;;;-0.70;73.30;;;;;;4858430;29;20036;-91
2021/01/17 07:33:44;;;;;;;20.00;8.55;;;-0.80;73.20;;;;;;4954226;28;20031;-92
2021/01/17 07:36:22;;;;;;;28.58;11.35;;;-0.80;73.00;;;;;;4966299;28;20034;-95
2021/01/17 07:48:41;;;;;;;28.85;11.43;;;-0.60;73.60;;;;;;5279285;23;20055;-87
2021/01/17 07:52:02;;;;;;;;;;;;;;;;;;;;;
2021/01/17 07:54:35;;;;;;;25.10;10.30;;;-0.70;73.20;;;;;;4871727;29;20034;-81
2021/01/17 07:57:30;;;;;;;29.92;11.60;;;-0.60;73.60;;;;;;4949786;28;20047;-82
2021/01/17 08:00:44;;;;;;;;;;;;;;;;;;;;;
2021/01/17 08:04:16;;;;;;;;;;;;;;;;;;;;;
2021/01/17 08:07:21;;;;;;;;;;;;;;;;;;;;;
2021/01/17 08:13:42;;;;;;;;;;;;;;;;;;;;;
2021/01/17 08:16:47;;;;;;;;;;;;;;;;;;;;;
2021/01/17 08:23:12;;;;;;;;;;;;;;;;;;;;;
2021/01/17 08:26:12;;;;;;;24.63;10.27;;;0.10;73.50;;;;;;4881317;29;20025;-88
2021/01/17 08:29:02;;;;;;;27.15;10.23;;;0.00;73.80;;;;;;4851233;29;20513;-88
2021/01/17 08:32:35;;;;;;;;;;;;;;;;;;;;;
2021/01/17 08:35:25;;;;;;;23.60;10.15;;;0.30;74.30;;;;;;4962680;28;20031;-89
2021/01/17 08:38:14;;;;;;;25.10;11.40;;;0.40;74.20;;;;;;4952310;28;20042;-87
2021/01/17 08:40:51;;;;;;;32.85;12.93;;;0.40;74.00;;;;;;4954900;28;20378;-93
2021/01/17 08:43:31;;;;;;;19.70;8.50;;;0.50;74.00;;;;;;4958646;28;20391;-88
2021/01/17 08:45:57;;;;;;;20.02;9.05;;;0.40;73.40;;;;;;4951247;28;20202;-93
2021/01/17 08:48:27;;;;;;;28.15;12.00;;;0.40;73.60;;;;;;4952725;28;20047;-89
2021/01/17 08:51:20;;;;;;;28.08;11.70;;;0.40;73.80;;;;;;4956247;28;20106;-93
2021/01/17 08:54:09;;;;;;;;;;;0.50;74.30;;;;;;4945731;28;20035;-93
2021/01/17 08:56:37;;;;;;;32.10;12.38;;;0.60;74.50;;;;;;4955399;28;20369;-90
2021/01/17 08:59:07;;;;;;;28.83;11.27;;;0.70;74.30;;;;;;4955596;28;20035;-91
2021/01/17 09:12:37;;;;;;;30.85;12.93;;;0.90;74.40;;;;;;4965958;28;20046;-92
2021/01/17 09:15:15;;;;;;;30.15;13.20;;;1.00;74.90;;;;;;4964483;28;20031;-92
2021/01/17 09:17:43;;;;;;;32.97;14.85;;;1.20;75.40;;;;;;4956786;28;20031;-92
2021/01/17 09:20:15;;;;;;;31.63;13.50;;;1.30;74.90;;;;;;4955496;28;20106;-90
2021/01/17 09:23:00;;;;;;;28.00;12.10;;;1.40;74.90;;;;;;4940953;28;20027;-92
2021/01/17 09:26:23;;;;;;;;;;;;;;;;;;;;;
2021/01/17 09:29:33;;;;;;;36.20;17.80;;;1.50;74.10;;;;;;4965149;28;20030;-90
2021/01/17 09:32:18;;;;;;;37.47;16.40;;;1.50;74.20;;;;;;4922135;28;20035;-90
2021/01/17 09:34:59;;;;;;;32.08;14.02;;;1.50;73.80;;;;;;4958979;28;20028;-90
2021/01/17 09:37:52;;;;;;;;;;;;;;;;;;;;;
2021/01/17 09:41:22;;;;;;;;;;;;;;;;;;;;;
2021/01/17 09:44:16;;;;;;;39.33;16.17;;;2.00;75.50;;;;;;4936914;28;20031;-92
2021/01/17 09:46:41;;;;;;;36.05;15.38;;;2.00;75.40;;;;;;4956624;28;20047;-90
2021/01/17 09:49:28;;;;;;;33.40;14.63;;;2.10;74.60;;;;;;4941398;28;20050;-90
2021/01/17 09:52:03;;;;;;;30.88;12.80;;;2.10;74.40;;;;;;4964506;28;20030;-89
2021/01/17 09:54:28;;;;;;;25.00;11.25;;;2.10;73.90;;;;;;4937855;28;20506;-92
2021/01/17 09:56:55;;;;;;;25.00;12.45;;;2.10;74.70;;;;;;4957664;28;20039;-91
2021/01/17 09:59:29;;;;;;;31.15;12.95;;;2.20;74.70;;;;;;4957649;28;20023;-90
2021/01/17 10:02:04;;;;;;;32.85;13.88;;;2.20;74.40;;;;;;4942052;28;20480;-90
2021/01/17 10:04:41;;;;;;;26.02;11.77;;;2.10;73.80;;;;;;4960883;28;20054;-90
2021/01/17 10:07:23;;;;;;;30.73;14.60;;;2.10;74.40;;;;;;4944049;28;20040;-92
2021/01/17 10:09:51;;;;;;;33.80;12.77;;;2.30;75.00;;;;;;4956744;28;20030;-91
2021/01/17 10:12:22;;;;;;;31.38;15.02;;;2.30;74.90;;;;;;4940582;28;20030;-91
2021/01/17 10:14:49;;;;;;;30.08;13.15;;;2.40;74.60;;;;;;4958764;28;20174;-90
2021/01/17 10:17:25;;;;;;;27.85;12.15;;;2.40;74.70;;;;;;4941998;28;20075;-89
2021/01/17 10:19:51;;;;;;;29.73;13.82;;;2.50;74.80;;;;;;4959000;28;20472;-89
2021/01/17 10:36:39;;;;;;;31.33;14.63;;;2.60;75.30;;;;;;4890554;29;20040;-89
2021/01/17 10:39:24;;;;;;;35.28;15.38;;;2.70;74.50;;;;;;4873418;29;20493;-89
2021/01/17 10:45:27;;;;;;;30.80;14.10;;;2.60;74.10;;;;;;4966203;28;19921;-92
2021/01/17 10:49:10;;;;;;;31.73;14.45;;;2.70;74.90;;;;;;4880491;29;20033;-91
2021/01/17 10:51:11;;;;;;;31.73;13.80;;;2.70;74.80;;;;;;4912004;29;20094;-89
2021/01/17 10:53:54;;;;;;;31.38;14.18;;;2.80;74.80;;;;;;4950609;29;20053;-89
2021/01/17 10:56:21;;;;;;;31.27;13.88;;;2.80;74.60;;;;;;4932584;29;20122;-90
2021/01/17 10:58:56;;;;;;;29.48;14.93;;;2.80;74.80;;;;;;4939583;29;20225;-93
2021/01/17 11:01:56;;;;;;;33.45;13.20;;;2.80;74.70;;;;;;4923600;29;20039;-92
2021/01/17 11:04:52;;;;;;;;;;;;;;;;;;;;;
2021/01/17 11:07:25;;;;;;;28.60;12.38;;;2.90;74.30;;;;;;4949586;29;20114;-90
2021/01/17 11:09:51;;;;;;;27.92;13.15;;;2.90;74.70;;;;;;4939231;29;20031;-92
2021/01/17 11:12:36;;;;;;;31.35;14.57;;;2.90;74.80;;;;;;4938704;28;20127;-92
2021/01/17 11:15:17;;;;;;;28.08;12.13;;;2.90;74.70;;;;;;4940690;29;20024;-91
2021/01/17 11:18:00;;;;;;;25.63;12.32;;;3.00;74.80;;;;;;4941857;29;20032;-91
2021/01/17 11:21:31;;;;;;;;;;;;;;;;;;;;;
2021/01/17 11:24:01;;;;;;;26.13;11.77;;;3.00;74.70;;;;;;4916183;29;20087;-92
2021/01/17 11:26:27;;;;;;;27.67;11.88;;;3.00;74.70;;;;;;4940956;29;20024;-89
2021/01/17 11:29:03;;;;;;;27.60;13.75;;;3.20;75.00;;;;;;4940692;29;20539;-90
2021/01/17 11:31:44;;;;;;;28.67;11.48;;;3.20;75.00;;;;;;4924287;29;20060;-90
2021/01/17 11:34:14;;;;;;;27.95;14.43;;;3.20;74.50;;;;;;4941130;29;20023;-88
2021/01/17 11:36:40;;;;;;;32.42;14.00;;;3.30;74.80;;;;;;4937726;29;20031;-92
2021/01/17 11:39:29;;;;;;;29.25;13.10;;;3.30;75.30;;;;;;4943518;29;20614;-93
2021/01/17 11:41:56;;;;;;;28.95;11.65;;;3.20;74.00;;;;;;4927962;29;20031;-92
2021/01/17 11:44:24;;;;;;;31.73;13.05;;;3.20;74.20;;;;;;4922480;29;20492;-92
2021/01/17 11:46:54;;;;;;;28.40;12.90;;;3.20;74.40;;;;;;4945433;28;20070;-92
2021/01/17 11:50:02;;;;;;;;;;;;;;;;;;;;;
2021/01/17 11:52:32;;;;;;;33.53;14.55;;;3.30;74.50;;;;;;4959395;28;20126;-91
2021/01/17 11:55:07;;;;;;;30.08;15.05;;;3.30;74.90;;;;;;4959435;28;20022;-89
2021/01/17 11:57:32;;;;;;;;;;;3.30;74.60;;;;;;4958259;28;20031;-93
2021/01/17 12:00:07;;;;;;;24.15;11.35;;;3.40;74.90;;;;;;4958492;28;19917;-94
2021/01/17 12:02:39;;;;;;;27.05;13.25;;;3.50;75.20;;;;;;4960994;28;20043;-93
2021/01/17 12:05:14;;;;;;;26.08;13.13;;;3.50;74.90;;;;;;4962728;28;20083;-93
2021/01/17 12:07:56;;;;;;;35.38;14.85;;;3.60;74.90;;;;;;4978071;28;20055;-93
2021/01/17 12:10:29;;;;;;;31.15;13.85;;;3.60;74.40;;;;;;4979545;28;20038;-94
2021/01/17 12:12:57;;;;;;;35.50;14.10;;;3.50;74.40;;;;;;4974370;28;20042;-89
2021/01/17 12:15:25;;;;;;;29.70;12.60;;;3.50;74.40;;;;;;4959041;28;20026;-89
2021/01/17 12:17:57;;;;;;;29.83;14.02;;;3.50;74.50;;;;;;4970282;28;20121;-90
2021/01/17 12:20:37;;;;;;;29.45;13.73;;;3.40;74.60;;;;;;4963814;28;20045;-91
2021/01/17 12:23:04;;;;;;;28.17;13.02;;;3.50;74.30;;;;;;4962568;28;20074;-90
2021/01/17 12:25:54;;;;;;;31.90;16.13;;;3.40;74.50;;;;;;4963060;28;20104;-91
2021/01/17 12:28:20;;;;;;;32.92;15.18;;;3.50;74.30;;;;;;4946776;28;20058;-92
2021/01/17 12:30:46;;;;;;;27.40;13.23;;;3.50;74.30;;;;;;4957256;28;20020;-90
2021/01/17 12:33:14;;;;;;;28.77;13.07;;;3.50;74.80;;;;;;4958038;28;20035;-89
2021/01/17 12:36:15;;;;;;;29.80;13.98;;;3.50;74.60;;;;;;4967965;28;20034;-93
2021/01/17 12:38:49;;;;;;;27.35;11.55;;;3.50;74.40;;;;;;4951955;28;20035;-93
2021/01/17 12:41:33;;;;;;;25.63;12.00;;;3.60;74.60;;;;;;4957186;28;20722;-91
2021/01/17 12:44:05;;;;;;;28.10;12.57;;;3.50;74.00;;;;;;4965030;28;20062;-91
2021/01/17 12:46:30;;;;;;;24.83;12.02;;;3.50;74.30;;;;;;4963169;28;20085;-92
2021/01/17 12:48:57;;;;;;;25.52;11.90;;;3.50;74.60;;;;;;4963191;28;20039;-92
2021/01/17 12:51:25;;;;;;;25.98;10.70;;;3.50;74.80;;;;;;4966139;28;20373;-94
2021/01/17 12:53:54;;;;;;;28.33;12.80;;;3.70;75.40;;;;;;4963060;28;20038;-93
2021/01/17 12:56:20;;;;;;;25.55;11.65;;;3.60;74.90;;;;;;4963794;28;20031;-93
2021/01/17 12:59:12;;;;;;;26.27;11.63;;;3.60;74.50;;;;;;4960763;28;20027;-93
2021/01/17 13:01:44;;;;;;;27.08;11.63;;;3.60;74.40;;;;;;4962011;28;20027;-92
2021/01/17 13:04:11;;;;;;;23.98;10.25;;;3.60;74.40;;;;;;4961334;28;20023;-92
2021/01/17 13:06:36;;;;;;;23.08;10.98;;;3.50;74.10;;;;;;4963855;28;20023;-91
2021/01/17 13:09:02;;;;;;;30.63;11.77;;;3.60;74.60;;;;;;4959549;28;20051;-93
2021/01/17 13:11:35;;;;;;;24.50;10.95;;;3.50;74.20;;;;;;4942400;28;20066;-91
2021/01/17 13:14:08;;;;;;;20.88;9.25;;;3.60;74.20;;;;;;4955120;28;20066;-91
2021/01/17 13:16:34;;;;;;;23.33;10.15;;;3.50;74.40;;;;;;4956829;28;20034;-91
2021/01/17 13:19:09;;;;;;;21.90;10.10;;;3.50;74.40;;;;;;4966274;28;20026;-91
2021/01/17 13:21:52;;;;;;;22.55;9.93;;;3.60;74.70;;;;;;4957867;28;20479;-93
2021/01/17 13:24:17;;;;;;;19.80;8.98;;;3.60;74.70;;;;;;4945723;28;20034;-93
2021/01/17 13:26:51;;;;;;;21.67;10.05;;;3.60;74.60;;;;;;4961782;28;20034;-93
2021/01/17 13:29:17;;;;;;;20.93;9.57;;;3.60;74.10;;;;;;4963900;28;20027;-92
2021/01/17 13:31:48;;;;;;;27.02;11.30;;;3.50;74.30;;;;;;4962587;28;20050;-94
2021/01/17 13:34:22;;;;;;;22.65;10.48;;;3.60;74.40;;;;;;4967932;28;20026;-94
2021/01/17 13:36:51;;;;;;;27.27;13.43;;;3.50;74.00;;;;;;4944814;28;20054;-93
2021/01/17 13:39:45;;;;;;;28.45;12.20;;;3.40;73.80;;;;;;4960240;28;20027;-92
2021/01/17 13:46:03;;;;;;;;;;;;;;;;;;;;;
2021/01/17 13:48:32;;;;;;;23.42;10.43;;;3.20;74.00;;;;;;4972110;28;20575;-91
2021/01/17 13:50:58;;;;;;;21.23;8.70;;;3.20;74.20;;;;;;4958011;28;20483;-92
2021/01/17 13:53:34;;;;;;;22.08;10.05;;;3.20;74.00;;;;;;4942297;28;20099;-91
2021/01/17 13:56:01;;;;;;;23.10;11.30;;;3.10;73.80;;;;;;4948019;28;20035;-92
2021/01/17 13:58:30;;;;;;;23.67;10.98;;;3.10;74.10;;;;;;4966482;28;20031;-92
2021/01/17 14:00:59;;;;;;;26.08;10.60;;;3.10;74.40;;;;;;4964591;28;20033;-92
2021/01/17 14:03:25;;;;;;;21.08;10.10;;;3.10;74.40;;;;;;4961549;28;20018;-92
2021/01/17 14:05:50;;;;;;;20.60;9.63;;;3.10;74.30;;;;;;4959489;28;20030;-93
2021/01/17 14:08:17;;;;;;;24.08;11.15;;;3.20;74.30;;;;;;4958535;28;20034;-93
2021/01/17 14:10:43;;;;;;;21.00;9.35;;;3.20;74.70;;;;;;4953987;28;20113;-92
2021/01/17 14:13:09;;;;;;;23.88;10.02;;;3.20;74.60;;;;;;4923604;28;20058;-92
2021/01/17 14:15:37;;;;;;;20.90;9.27;;;3.30;74.50;;;;;;4957093;28;20023;-92
2021/01/17 14:18:03;;;;;;;18.38;8.63;;;3.20;74.40;;;;;;4954762;28;20050;-92
2021/01/17 14:20:29;;;;;;;22.17;10.32;;;3.20;74.40;;;;;;4956580;28;20027;-92
2021/01/17 14:22:59;;;;;;;17.52;9.00;;;3.20;73.80;;;;;;4954724;28;20419;-92
2021/01/17 14:25:25;;;;;;;20.50;9.23;;;3.10;74.00;;;;;;4938031;28;20558;-90
2021/01/17 14:27:51;;;;;;;21.60;10.73;;;3.00;73.70;;;;;;4957256;28;20047;-93
2021/01/17 14:33:42;;;;;;;19.58;8.65;;;2.90;73.60;;;;;;4970658;28;20046;-93
2021/01/17 14:36:08;;;;;;;25.33;9.90;;;2.80;74.00;;;;;;4956792;28;20491;-92
2021/01/17 14:38:51;;;;;;;23.38;9.85;;;2.80;74.00;;;;;;4942008;28;20074;-91
2021/01/17 14:41:24;;;;;;;20.00;9.18;;;2.90;74.30;;;;;;4922822;28;20067;-92
2021/01/17 14:43:53;;;;;;;23.25;10.63;;;2.90;74.20;;;;;;4960855;28;20023;-92
2021/01/17 14:46:20;;;;;;;23.48;11.13;;;2.80;74.10;;;;;;4958285;28;20015;-92
2021/01/17 14:48:52;;;;;;;26.92;11.48;;;2.80;74.20;;;;;;4926786;28;20098;-91
2021/01/17 14:51:21;;;;;;;27.55;11.55;;;2.80;74.00;;;;;;4959153;28;20038;-91
2021/01/17 14:54:02;;;;;;;26.52;10.98;;;2.80;74.00;;;;;;4948165;28;20118;-93
2021/01/17 14:56:48;;;;;;;22.00;10.23;;;2.70;74.20;;;;;;4934090;28;20053;-91
2021/01/17 14:59:18;;;;;;;27.48;11.30;;;2.70;74.10;;;;;;4959507;28;20027;-91
2021/01/17 15:02:00;;;;;;;25.33;10.77;;;2.70;73.80;;;;;;4965814;28;20023;-94
2021/01/17 15:04:26;;;;;;;20.67;9.52;;;2.70;74.00;;;;;;4956375;28;20143;-92
2021/01/17 15:07:04;;;;;;;22.63;11.00;;;2.50;73.70;;;;;;4960322;28;20486;-93
2021/01/17 15:10:06;;;;;;;24.25;10.65;;;2.60;74.50;;;;;;4964377;28;20063;-91
2021/01/17 15:13:14;;;;;;;;;;;;;;;;;;;;;
2021/01/17 15:26:48;;;;;;;22.13;10.10;;;2.30;73.90;;;;;;4782592;29;20127;-94
2021/01/17 15:30:06;;;;;;;24.88;10.02;;;2.30;73.60;;;;;;4866661;29;20052;-95
2021/01/17 15:33:10;;;;;;;;;;;;;;;;;;;;;
2021/01/17 15:35:31;;;;;;;24.75;11.95;;;2.10;73.70;;;;;;4900506;29;20033;-93
2021/01/17 15:38:02;;;;;;;27.88;11.52;;;2.10;73.80;;;;;;4946300;28;20039;-94
2021/01/17 15:40:27;;;;;;;28.60;12.48;;;2.00;73.70;;;;;;4955855;28;20027;-91
2021/01/17 15:42:59;;;;;;;28.48;12.23;;;2.10;73.80;;;;;;4938663;28;20034;-84
2021/01/17 15:45:24;;;;;;;28.30;10.95;;;2.00;73.90;;;;;;4939033;28;20118;-85
2021/01/17 15:47:50;;;;;;;28.75;12.93;;;2.00;73.80;;;;;;4955666;28;20129;-85
2021/01/17 15:50:19;;;;;;;29.63;13.57;;;2.00;73.70;;;;;;4958984;28;20078;-84
2021/01/17 15:52:52;;;;;;;32.70;13.43;;;1.80;73.30;;;;;;4942867;28;20031;-82
2021/01/17 15:55:18;;;;;;;31.40;14.27;;;1.80;73.40;;;;;;4955443;28;20114;-83
2021/01/17 15:57:43;;;;;;;28.98;12.32;;;1.70;73.40;;;;;;4955050;28;20113;-85
2021/01/17 16:00:09;;;;;;;25.55;12.40;;;1.60;73.50;;;;;;4955283;28;20024;-85
2021/01/17 16:02:36;;;;;;;24.58;11.27;;;1.60;73.50;;;;;;4955672;28;20027;-84
2021/01/17 16:05:05;;;;;;;28.35;13.00;;;1.60;73.80;;;;;;4955631;28;20411;-84
2021/01/17 16:07:30;;;;;;;27.27;12.13;;;1.60;73.70;;;;;;4939528;28;20028;-86
2021/01/17 16:10:03;;;;;;;27.00;11.85;;;1.60;73.50;;;;;;4957282;28;20177;-87
2021/01/17 16:12:31;;;;;;;27.95;12.20;;;1.50;73.50;;;;;;4953455;28;20467;-91
2021/01/17 16:15:16;;;;;;;26.80;12.45;;;1.50;73.60;;;;;;4953992;28;20197;-89
2021/01/17 16:21:28;;;;;;;;;;;;;;;;;;;;;
2021/01/17 16:24:10;;;;;;;32.58;13.68;;;1.40;73.50;;;;;;4937281;28;20055;-87
2021/01/17 17:02:49;;;;;;;28.55;12.18;;;1.20;74.10;;;;;;4846945;29;20159;-92
2021/01/17 17:05:16;;;;;;;32.08;13.07;;;1.20;73.90;;;;;;4846854;29;20038;-91